createdAt,value
2023-02-09T00:01:17.637Z,63.10
2023-02-09T00:03:45.985Z,63.40
2023-02-09T00:06:17.189Z,62.40
2023-02-09T00:08:45.729Z,64.70
2023-02-09T00:11:20.620Z,64.40
2023-02-09T00:13:47.563Z,63.10
2023-02-09T00:16:15.559Z,63.30
2023-02-09T00:18:43.464Z,62.30
2023-02-09T00:21:12.494Z,62.30
2023-02-09T00:23:41.837Z,64.70
2023-02-09T00:26:12.458Z,64.60
2023-02-09T00:28:41.692Z,64.00
2023-02-09T00:31:11.312Z,63.50
2023-02-09T00:33:39.751Z,64.70
2023-02-09T00:36:09.395Z,64.80
2023-02-09T00:38:37.385Z,63.40
2023-02-09T00:41:06.128Z,61.80
2023-02-09T00:43:34.934Z,62.20
2023-02-09T00:46:04.748Z,62.20
2023-02-09T00:48:32.803Z,62.70
2023-02-09T00:51:00.984Z,62.10
2023-02-09T00:53:29.036Z,63.50
2023-02-09T00:55:56.943Z,64.80
2023-02-09T00:58:25.041Z,63.80
2023-02-09T01:00:53.067Z,63.60
2023-02-09T01:03:22.302Z,64.30
2023-02-09T01:05:50.324Z,65.00
2023-02-09T01:08:18.218Z,62.80
2023-02-09T01:10:46.479Z,62.80
2023-02-09T01:13:14.614Z,62.90
2023-02-09T01:15:42.526Z,63.70
2023-02-09T01:18:10.395Z,63.90
2023-02-09T01:20:41.998Z,61.50
2023-02-09T01:23:10.385Z,58.60
2023-02-09T01:25:38.298Z,61.50
2023-02-09T01:28:06.315Z,62.70
2023-02-09T01:30:35.432Z,62.00
2023-02-09T01:33:03.311Z,62.80
2023-02-09T01:35:32.392Z,62.20
2023-02-09T01:38:01.766Z,63.50
2023-02-09T01:40:29.670Z,64.10
2023-02-09T01:42:57.547Z,64.40
2023-02-09T01:45:30.365Z,64.40
2023-02-09T01:48:01.422Z,63.80
2023-02-09T01:50:34.132Z,63.50
2023-02-09T01:53:04.325Z,64.20
2023-02-09T01:55:36.084Z,64.20
2023-02-09T01:58:08.388Z,63.80
2023-02-09T02:00:36.349Z,63.90
2023-02-09T02:03:08.410Z,64.10
2023-02-09T02:05:40.138Z,63.70
2023-02-09T02:08:13.948Z,64.70
2023-02-09T02:10:42.124Z,65.50
2023-02-09T02:13:10.094Z,64.00
2023-02-09T02:15:44.755Z,65.20
2023-02-09T02:18:25.743Z,65.50
2023-02-09T02:21:21.546Z,65.50
2023-02-09T02:24:15.205Z,65.10
2023-02-09T02:26:54.510Z,64.90
2023-02-09T02:30:03.065Z,64.30
2023-02-09T02:33:01.013Z,64.70
2023-02-09T02:35:37.493Z,64.90
2023-02-09T02:38:17.557Z,64.60
2023-02-09T02:40:56.019Z,65.60
2023-02-09T02:43:37.512Z,65.40
2023-02-09T02:46:09.844Z,64.70
2023-02-09T02:48:43.182Z,65.50
2023-02-09T02:51:16.472Z,65.30
2023-02-09T02:53:50.530Z,65.40
2023-02-09T02:56:22.150Z,65.20
2023-02-09T02:58:53.000Z,64.00
2023-02-09T03:01:24.737Z,64.70
2023-02-09T03:03:54.913Z,64.60
2023-02-09T03:06:22.778Z,64.70
2023-02-09T03:08:53.205Z,64.80
2023-02-09T03:11:22.702Z,64.70
2023-02-09T03:14:08.717Z,65.30
2023-02-09T03:16:45.157Z,65.00
2023-02-09T03:19:26.625Z,64.60
2023-02-09T03:21:59.839Z,61.40
2023-02-09T03:24:41.137Z,61.20
2023-02-09T03:27:16.183Z,61.60
2023-02-09T03:29:46.814Z,61.40
2023-02-09T03:32:15.786Z,61.40
2023-02-09T03:34:46.455Z,61.50
2023-02-09T03:37:14.636Z,62.60
2023-02-09T03:39:42.782Z,62.70
2023-02-09T03:42:10.742Z,63.70
2023-02-09T03:44:38.860Z,64.10
2023-02-09T03:47:08.850Z,65.20
2023-02-09T03:49:40.156Z,65.30
2023-02-09T03:52:11.346Z,65.00
2023-02-09T03:54:39.337Z,65.20
2023-02-09T03:57:08.376Z,65.00
2023-02-09T03:59:37.517Z,65.00
2023-02-09T04:02:07.609Z,65.80
2023-02-09T04:04:35.978Z,65.70
2023-02-09T04:07:04.403Z,66.00
2023-02-09T04:09:33.894Z,66.60
2023-02-09T04:12:01.764Z,66.80
2023-02-09T04:14:29.732Z,65.80
2023-02-09T04:16:57.583Z,65.70
2023-02-09T04:19:25.722Z,65.00
2023-02-09T04:21:54.079Z,65.30
2023-02-09T04:24:22.460Z,65.90
2023-02-09T04:26:51.689Z,65.90
2023-02-09T04:29:19.520Z,65.70
2023-02-09T04:31:47.517Z,65.20
2023-02-09T04:34:15.397Z,65.50
2023-02-09T04:36:43.250Z,65.80
2023-02-09T04:39:11.130Z,66.50
2023-02-09T04:41:39.016Z,65.50
2023-02-09T04:44:08.220Z,65.40
2023-02-09T04:46:36.236Z,65.40
2023-02-09T04:49:04.168Z,66.90
2023-02-09T04:51:31.982Z,66.70
2023-02-09T04:54:00.098Z,66.80
2023-02-09T04:56:27.934Z,66.20
2023-02-09T04:59:13.479Z,65.50
2023-02-09T05:01:42.688Z,66.30
2023-02-09T05:04:10.535Z,66.60
2023-02-09T05:06:38.405Z,63.90
2023-02-09T05:09:06.295Z,63.30
2023-02-09T05:11:34.114Z,63.10
2023-02-09T05:14:01.988Z,63.40
2023-02-09T05:16:29.870Z,65.30
2023-02-09T05:18:59.139Z,65.30
2023-02-09T05:21:27.046Z,65.20
2023-02-09T05:23:54.941Z,65.30
2023-02-09T05:26:22.798Z,64.20
2023-02-09T05:28:50.652Z,65.30
2023-02-09T05:31:19.051Z,64.50
2023-02-09T05:33:47.079Z,64.40
2023-02-09T05:36:16.268Z,64.40
2023-02-09T05:38:44.116Z,64.50
2023-02-09T05:41:35.123Z,64.20
2023-02-09T05:44:02.997Z,65.10
2023-02-09T05:46:30.835Z,65.90
2023-02-09T05:48:58.799Z,67.40
2023-02-09T05:51:28.014Z,67.40
2023-02-09T05:53:56.294Z,67.00
2023-02-09T05:56:24.135Z,67.20
2023-02-09T05:58:51.959Z,66.40
2023-02-09T06:01:19.877Z,66.30
2023-02-09T06:03:47.733Z,66.30
2023-02-09T06:06:15.771Z,66.50
2023-02-09T06:08:45.023Z,66.40
2023-02-09T06:11:12.944Z,67.00
2023-02-09T06:13:40.770Z,68.20
2023-02-09T06:16:09.168Z,67.90
2023-02-09T06:18:38.145Z,67.80
2023-02-09T06:21:07.612Z,67.50
2023-02-09T06:23:35.541Z,67.70
2023-02-09T06:26:08.533Z,67.70
2023-02-09T06:28:37.029Z,67.50
2023-02-09T06:31:05.440Z,66.70
2023-02-09T06:33:33.803Z,67.00
2023-02-09T06:36:01.991Z,66.90
2023-02-09T06:38:31.837Z,66.90
2023-02-09T06:40:59.715Z,67.40
2023-02-09T06:43:29.230Z,67.30
2023-02-09T06:45:57.142Z,65.50
2023-02-09T06:48:24.996Z,66.20
2023-02-09T06:50:53.069Z,65.40
2023-02-09T06:53:21.184Z,65.80
2023-02-09T06:55:49.023Z,64.10
2023-02-09T06:58:16.855Z,61.90
2023-02-09T07:00:46.480Z,62.90
2023-02-09T07:03:14.484Z,63.40
2023-02-09T07:05:42.339Z,63.80
2023-02-09T07:08:10.782Z,65.10
2023-02-09T07:10:41.082Z,65.10
2023-02-09T07:13:08.898Z,64.60
2023-02-09T07:15:36.792Z,65.50
2023-02-09T07:18:06.060Z,65.70
2023-02-09T07:20:34.008Z,64.90
2023-02-09T07:23:02.280Z,64.10
2023-02-09T07:25:30.184Z,63.20
2023-02-09T07:27:58.062Z,62.00
2023-02-09T07:30:25.932Z,60.50
2023-02-09T07:32:53.763Z,58.60
2023-02-09T07:35:23.224Z,57.40
2023-02-09T07:37:51.470Z,56.90
2023-02-09T07:40:20.364Z,57.30
2023-02-09T07:42:48.199Z,53.80
2023-02-09T07:45:16.066Z,54.20
2023-02-09T07:47:43.942Z,53.50
2023-02-09T07:50:12.084Z,54.50
2023-02-09T07:52:41.315Z,54.40
2023-02-09T07:55:09.417Z,51.80
2023-02-09T07:57:37.242Z,49.90
2023-02-09T08:00:06.603Z,48.70
2023-02-09T08:02:36.874Z,49.00
2023-02-09T08:05:08.787Z,50.50
2023-02-09T08:07:36.771Z,49.60
2023-02-09T08:10:06.518Z,48.10
2023-02-09T08:12:52.103Z,47.70
2023-02-09T08:15:22.105Z,46.90
2023-02-09T08:17:52.168Z,47.50
2023-02-09T08:20:23.698Z,46.40
2023-02-09T08:22:54.974Z,44.30
2023-02-09T08:25:25.890Z,44.50
2023-02-09T08:27:54.392Z,44.40
2023-02-09T08:30:23.481Z,44.00
2023-02-09T08:32:51.557Z,43.50
2023-02-09T08:35:19.593Z,43.30
2023-02-09T08:37:48.020Z,42.40
2023-02-09T08:40:16.095Z,42.20
2023-02-09T08:42:45.335Z,40.90
2023-02-09T08:45:16.127Z,42.00
2023-02-09T08:47:45.050Z,41.00
2023-02-09T08:50:14.084Z,41.00
2023-02-09T08:52:42.574Z,40.70
2023-02-09T08:55:10.701Z,39.60
2023-02-09T08:57:44.295Z,39.80
2023-02-09T09:00:15.382Z,39.30
2023-02-09T09:02:43.299Z,39.50
2023-02-09T09:05:11.194Z,40.00
2023-02-09T09:07:40.805Z,37.90
2023-02-09T09:10:09.778Z,40.00
2023-02-09T09:12:37.969Z,39.00
2023-02-09T09:15:06.793Z,39.60
2023-02-09T09:17:36.052Z,38.80
2023-02-09T09:20:04.052Z,40.30
2023-02-09T09:22:31.898Z,38.40
2023-02-09T09:24:59.755Z,39.60
2023-02-09T09:27:28.348Z,40.20
2023-02-09T09:29:56.451Z,38.60
2023-02-09T09:32:24.973Z,39.30
2023-02-09T09:34:55.580Z,38.10
2023-02-09T09:37:24.196Z,36.30
2023-02-09T09:39:52.328Z,37.60
2023-02-09T09:42:25.662Z,36.10
2023-02-09T09:44:54.521Z,35.20
2023-02-09T09:47:27.232Z,36.00
2023-02-09T09:49:56.470Z,34.60
2023-02-09T09:52:31.048Z,32.50
2023-02-09T09:55:01.481Z,32.30
2023-02-09T09:57:31.108Z,33.20
2023-02-09T09:59:59.110Z,33.70
2023-02-09T10:02:30.740Z,32.20
2023-02-09T10:05:06.227Z,33.30
2023-02-09T10:07:35.548Z,34.90
2023-02-09T10:10:05.685Z,34.30
2023-02-09T10:12:38.229Z,33.00
2023-02-09T10:15:27.787Z,32.30
2023-02-09T10:17:55.942Z,31.60
2023-02-09T10:20:45.390Z,31.60
2023-02-09T10:23:18.698Z,32.10
2023-02-09T10:25:58.404Z,32.40
2023-02-09T10:28:28.395Z,30.70
2023-02-09T10:30:59.311Z,31.20
2023-02-09T10:33:29.483Z,31.30
2023-02-09T10:36:05.632Z,31.60
2023-02-09T10:38:34.505Z,31.30
2023-02-09T10:41:02.726Z,32.30
2023-02-09T10:43:33.198Z,31.70
2023-02-09T10:46:03.892Z,32.40
2023-02-09T10:48:41.404Z,30.30
2023-02-09T10:51:16.974Z,30.80
2023-02-09T10:54:01.310Z,30.40
2023-02-09T10:56:35.273Z,32.00
2023-02-09T10:59:14.268Z,30.00
2023-02-09T11:01:44.980Z,28.90
2023-02-09T11:04:21.679Z,30.00
2023-02-09T11:06:55.451Z,29.60
2023-02-09T11:09:28.242Z,29.70
2023-02-09T11:11:58.267Z,30.00
2023-02-09T11:14:26.350Z,29.80
2023-02-09T11:17:03.116Z,28.80
2023-02-09T11:19:57.019Z,29.50
2023-02-09T11:22:50.868Z,30.20
2023-02-09T11:25:24.883Z,29.50
2023-02-09T11:28:15.259Z,29.20
2023-02-09T11:31:04.488Z,29.30
2023-02-09T11:33:42.173Z,29.50
2023-02-09T11:36:21.380Z,30.00
2023-02-09T11:38:55.101Z,28.90
2023-02-09T11:41:46.959Z,28.90
2023-02-09T11:44:24.129Z,28.80
2023-02-09T11:46:55.096Z,29.20
2023-02-09T11:49:26.811Z,29.50
2023-02-09T11:51:56.576Z,29.50
2023-02-09T11:54:31.212Z,29.10
2023-02-09T11:57:11.525Z,29.50
2023-02-09T11:59:44.316Z,28.70
2023-02-09T12:02:24.061Z,29.60
2023-02-09T12:04:58.000Z,28.60
2023-02-09T12:07:33.211Z,29.60
2023-02-09T12:10:15.049Z,29.50
2023-02-09T12:12:49.721Z,28.70
2023-02-09T12:15:20.441Z,29.30
2023-02-09T12:17:52.452Z,29.60
2023-02-09T12:20:27.554Z,29.40
2023-02-09T12:23:07.866Z,30.40
2023-02-09T12:26:01.553Z,29.60
2023-02-09T12:28:41.417Z,30.00
2023-02-09T12:31:24.991Z,29.80
2023-02-09T12:34:14.918Z,29.50
2023-02-09T12:37:28.000Z,29.90
2023-02-09T12:40:24.063Z,28.80
2023-02-09T12:43:14.021Z,29.50
2023-02-09T12:45:43.405Z,29.90
2023-02-09T12:48:19.222Z,29.60
2023-02-09T12:50:53.401Z,30.10
2023-02-09T12:53:46.815Z,29.80
2023-02-09T12:56:29.084Z,29.50
2023-02-09T12:59:18.185Z,29.50
2023-02-09T13:02:23.850Z,29.80
2023-02-09T13:05:05.036Z,30.10
2023-02-09T13:07:49.048Z,30.30
2023-02-09T13:10:24.467Z,31.80
2023-02-09T13:12:57.971Z,31.30
2023-02-09T13:15:34.325Z,31.10
2023-02-09T13:18:09.934Z,29.90
2023-02-09T13:21:11.203Z,30.40
2023-02-09T13:23:49.948Z,30.70
2023-02-09T13:26:22.310Z,30.00
2023-02-09T13:28:50.542Z,29.80
2023-02-09T13:31:27.462Z,29.20
2023-02-09T13:34:02.615Z,29.40
2023-02-09T13:36:39.719Z,30.50
2023-02-09T13:39:24.121Z,29.00
2023-02-09T13:41:53.668Z,30.50
2023-02-09T13:44:23.586Z,31.20
2023-02-09T13:46:58.128Z,30.10
2023-02-09T13:49:27.126Z,29.20
2023-02-09T13:52:12.318Z,29.50
2023-02-09T13:54:40.570Z,30.00
2023-02-09T13:57:20.662Z,29.60
2023-02-09T13:59:50.061Z,30.40
2023-02-09T14:02:22.398Z,31.10
2023-02-09T14:04:53.819Z,31.10
2023-02-09T14:07:26.553Z,30.90
2023-02-09T14:09:58.158Z,30.00
2023-02-09T14:12:51.387Z,29.50
2023-02-09T14:15:39.833Z,29.90
2023-02-09T14:18:24.900Z,30.90
2023-02-09T14:21:16.340Z,30.50
2023-02-09T14:23:46.443Z,29.80
2023-02-09T14:26:25.186Z,30.70
2023-02-09T14:29:04.519Z,31.10
2023-02-09T14:31:35.598Z,30.80
2023-02-09T14:34:04.863Z,31.50
2023-02-09T14:36:34.255Z,31.90
2023-02-09T14:39:12.693Z,31.30
2023-02-09T14:41:40.904Z,31.60
2023-02-09T14:44:21.301Z,31.90
2023-02-09T14:46:51.465Z,31.80
2023-02-09T14:49:21.298Z,32.10
2023-02-09T14:51:50.699Z,32.50
2023-02-09T14:54:24.859Z,32.00
2023-02-09T14:56:54.248Z,32.40
2023-02-09T14:59:23.129Z,32.50
2023-02-09T15:01:53.443Z,32.90
2023-02-09T15:04:22.662Z,33.00
2023-02-09T15:06:57.608Z,33.80
2023-02-09T15:09:30.896Z,34.40
2023-02-09T15:12:07.565Z,34.10
2023-02-09T15:14:43.818Z,33.90
2023-02-09T15:17:16.898Z,33.90
2023-02-09T15:19:46.954Z,34.60
2023-02-09T15:22:16.485Z,35.40
2023-02-09T15:24:45.033Z,35.10
2023-02-09T15:27:27.868Z,35.00
2023-02-09T15:29:59.739Z,35.70
2023-02-09T15:32:29.020Z,36.80
2023-02-09T15:34:58.239Z,36.70
2023-02-09T15:37:29.062Z,37.30
2023-02-09T15:39:59.795Z,37.30
2023-02-09T15:42:45.234Z,37.90
2023-02-09T15:45:34.841Z,39.00
2023-02-09T15:48:02.879Z,37.80
2023-02-09T15:50:34.276Z,38.20
2023-02-09T15:53:03.599Z,38.60
2023-02-09T15:55:32.175Z,39.00
2023-02-09T15:58:00.481Z,40.10
2023-02-09T16:00:30.487Z,39.80
2023-02-09T16:03:00.458Z,40.20
2023-02-09T16:05:29.998Z,40.40
2023-02-09T16:08:00.498Z,41.70
2023-02-09T16:10:30.588Z,42.60
2023-02-09T16:12:58.514Z,43.00
2023-02-09T16:15:27.674Z,44.30
2023-02-09T16:17:55.506Z,45.30
2023-02-09T16:20:25.892Z,45.70
2023-02-09T16:22:55.544Z,45.60
2023-02-09T16:25:26.588Z,45.90
2023-02-09T16:27:56.101Z,45.80
2023-02-09T16:30:26.797Z,46.00
2023-02-09T16:32:55.072Z,45.60
2023-02-09T16:35:25.370Z,45.80
2023-02-09T16:37:56.049Z,46.00
2023-02-09T16:40:29.318Z,46.90
2023-02-09T16:42:58.792Z,48.30
2023-02-09T16:45:28.533Z,50.00
2023-02-09T16:47:59.383Z,49.60
2023-02-09T16:50:33.014Z,49.20
2023-02-09T16:53:03.187Z,49.20
2023-02-09T16:55:34.054Z,50.20
2023-02-09T16:58:04.193Z,51.70
2023-02-09T17:00:34.825Z,52.00
2023-02-09T17:03:13.965Z,53.90
2023-02-09T17:05:43.583Z,53.30
2023-02-09T17:08:17.215Z,52.20
2023-02-09T17:10:47.718Z,51.70
2023-02-09T17:13:17.388Z,51.20
2023-02-09T17:15:47.448Z,51.80
2023-02-09T17:18:18.085Z,51.80
2023-02-09T17:20:48.714Z,51.80
2023-02-09T17:23:18.314Z,51.80
2023-02-09T17:25:48.281Z,51.80
2023-02-09T17:28:16.413Z,52.20
2023-02-09T17:30:45.215Z,51.70
2023-02-09T17:33:19.691Z,52.20
2023-02-09T17:36:22.261Z,52.20
2023-02-09T17:38:37.430Z,52.20
2023-02-09T17:41:13.968Z,52.10
2023-02-09T17:43:41.825Z,52.00
2023-02-09T17:46:11.397Z,53.30
2023-02-09T17:48:39.463Z,54.80
2023-02-09T17:51:09.615Z,56.10
2023-02-09T17:53:38.061Z,56.50
2023-02-09T17:56:08.636Z,56.80
2023-02-09T17:58:36.476Z,57.20
2023-02-09T18:01:14.072Z,59.70
2023-02-09T18:03:41.903Z,60.30
2023-02-09T18:06:11.458Z,61.20
2023-02-09T18:08:39.283Z,60.80
2023-02-09T18:11:14.559Z,61.20
2023-02-09T18:13:42.614Z,60.90
2023-02-09T18:16:13.402Z,60.20
2023-02-09T18:18:42.965Z,59.90
2023-02-09T18:21:14.628Z,60.00
2023-02-09T18:23:42.762Z,62.70
2023-02-09T18:26:12.038Z,60.40
2023-02-09T18:28:39.900Z,62.30
2023-02-09T18:31:08.293Z,63.60
2023-02-09T18:33:38.134Z,63.40
2023-02-09T18:36:07.555Z,63.50
2023-02-09T18:38:36.172Z,63.20
2023-02-09T18:41:04.029Z,63.30
2023-02-09T18:43:33.181Z,63.30
2023-02-09T18:46:01.356Z,63.60
2023-02-09T18:48:29.206Z,63.80
2023-02-09T18:50:57.090Z,64.40
2023-02-09T18:53:24.919Z,64.50
2023-02-09T18:55:53.720Z,66.10
2023-02-09T18:58:21.701Z,66.50
2023-02-09T19:00:50.885Z,65.50
2023-02-09T19:03:20.063Z,65.30
2023-02-09T19:05:48.872Z,64.70
2023-02-09T19:08:17.150Z,64.10
2023-02-09T19:10:45.675Z,62.90
2023-02-09T19:13:13.509Z,63.30
2023-02-09T19:15:41.440Z,64.00
2023-02-09T19:18:11.107Z,65.00
2023-02-09T19:20:39.539Z,65.00
2023-02-09T19:23:08.474Z,64.60
2023-02-09T19:25:37.270Z,64.60
2023-02-09T19:28:05.332Z,64.40
2023-02-09T19:30:33.279Z,63.80
2023-02-09T19:33:02.029Z,64.00
2023-02-09T19:35:31.910Z,64.00
2023-02-09T19:38:00.169Z,62.20
2023-02-09T19:40:35.525Z,63.30
2023-02-09T19:43:04.374Z,63.90
2023-02-09T19:45:36.479Z,63.30
2023-02-09T19:48:05.169Z,63.80
2023-02-09T19:50:34.706Z,64.70
2023-02-09T19:53:02.811Z,65.50
2023-02-09T19:55:30.685Z,65.60
2023-02-09T19:57:59.192Z,65.90
2023-02-09T20:00:27.260Z,66.30
2023-02-09T20:02:55.203Z,66.00
2023-02-09T20:05:23.066Z,64.90
2023-02-09T20:07:53.674Z,65.50
2023-02-09T20:10:23.733Z,66.30
2023-02-09T20:12:51.697Z,66.40
2023-02-09T20:15:19.769Z,66.40
2023-02-09T20:20:20.854Z,66.40
2023-02-09T20:22:50.309Z,65.30
2023-02-09T20:25:19.802Z,65.30
2023-02-09T20:27:49.679Z,65.00
2023-02-09T20:30:17.965Z,67.80
2023-02-09T20:32:45.815Z,68.30
2023-02-09T20:35:13.694Z,68.10
2023-02-09T20:37:41.559Z,67.30
2023-02-09T20:40:11.305Z,67.00
2023-02-09T20:42:58.276Z,66.40
2023-02-09T20:45:43.810Z,66.20
2023-02-09T20:48:11.763Z,67.20
2023-02-09T20:50:40.825Z,67.60
2023-02-09T20:53:08.649Z,68.90
2023-02-09T20:55:36.460Z,69.30
2023-02-09T20:58:05.684Z,69.40
2023-02-09T21:00:33.527Z,67.30
2023-02-09T21:03:01.404Z,67.70
2023-02-09T21:05:29.200Z,67.60
2023-02-09T21:07:57.323Z,67.70
2023-02-09T21:10:25.124Z,67.60
2023-02-09T21:12:52.952Z,68.00
2023-02-09T21:15:22.099Z,68.60
2023-02-09T21:17:51.626Z,67.60
2023-02-09T21:20:19.684Z,67.90
2023-02-09T21:22:48.282Z,68.10
2023-02-09T21:25:16.169Z,67.90
2023-02-09T21:27:44.008Z,68.80
2023-02-09T21:30:13.306Z,68.40
2023-02-09T21:32:42.494Z,68.50
2023-02-09T21:35:10.933Z,67.60
2023-02-09T21:37:39.328Z,68.20
2023-02-09T21:40:07.805Z,68.10
2023-02-09T21:42:37.064Z,68.30
2023-02-09T21:45:06.687Z,68.40
2023-02-09T21:47:37.603Z,68.30
2023-02-09T21:50:08.824Z,68.80
2023-02-09T21:52:36.854Z,68.80
2023-02-09T21:55:05.578Z,69.60
2023-02-09T21:57:33.443Z,68.00
2023-02-09T22:00:05.282Z,68.00
2023-02-09T22:02:33.210Z,68.00
2023-02-09T22:05:01.153Z,68.50
2023-02-09T22:07:30.340Z,69.80
2023-02-09T22:09:58.191Z,69.40
2023-02-09T22:12:26.021Z,69.50
2023-02-09T22:14:53.903Z,68.90
2023-02-09T22:17:21.834Z,68.80
2023-02-09T22:19:49.711Z,68.50
2023-02-09T22:22:17.538Z,68.20
2023-02-09T22:24:46.700Z,67.50
2023-02-09T22:27:14.545Z,67.40
2023-02-09T22:29:43.416Z,67.30
2023-02-09T22:32:11.376Z,66.60
2023-02-09T22:34:39.335Z,67.20
2023-02-09T22:37:07.173Z,66.70
2023-02-09T22:39:35.123Z,66.90
2023-02-09T22:42:04.431Z,66.60
2023-02-09T22:44:33.410Z,66.70
2023-02-09T22:47:01.284Z,66.20
2023-02-09T22:49:29.137Z,67.10
2023-02-09T22:51:56.960Z,67.50
2023-02-09T22:54:24.775Z,67.60
2023-02-09T22:56:52.838Z,67.50
2023-02-09T22:59:22.079Z,67.80
2023-02-09T23:01:49.914Z,67.50
2023-02-09T23:04:17.882Z,68.20
2023-02-09T23:06:46.404Z,67.20
2023-02-09T23:09:15.206Z,68.10
2023-02-09T23:11:44.265Z,67.20
2023-02-09T23:14:12.614Z,67.20
2023-02-09T23:16:43.188Z,67.10
2023-02-09T23:19:13.581Z,67.10
2023-02-09T23:21:43.945Z,67.10
2023-02-09T23:24:13.005Z,67.10
2023-02-09T23:26:41.324Z,67.00
2023-02-09T23:29:11.165Z,67.00
2023-02-09T23:31:40.784Z,67.00
2023-02-09T23:34:08.720Z,67.70
2023-02-09T23:36:36.585Z,68.10
2023-02-09T23:39:06.864Z,67.40
2023-02-09T23:41:35.575Z,68.00
2023-02-09T23:44:03.976Z,67.00
2023-02-09T23:46:31.928Z,66.40
2023-02-09T23:49:01.404Z,67.00
2023-02-09T23:51:31.988Z,66.20
2023-02-09T23:54:01.312Z,66.60
2023-02-09T23:56:31.793Z,66.40
2023-02-09T23:58:59.691Z,66.50
